sensor_id;sensor_type;location;lat;lon;timestamp;P1;durP1;ratioP1;P2;durP2;ratioP2
71655;SDS011;59497;48.798;8.816;2022-08-19T00:00:40;19.43;;;12.27;;
71655;SDS011;59497;48.798;8.816;2022-08-19T00:03:05;19.07;;;12.07;;
71655;SDS011;59497;48.798;8.816;2022-08-19T00:05:31;19.35;;;12.77;;
71655;SDS011;59497;48.798;8.816;2022-08-19T00:07:57;21.37;;;13.03;;
71655;SDS011;59497;48.798;8.816;2022-08-19T00:10:22;21.37;;;13.40;;
71655;SDS011;59497;48.798;8.816;2022-08-19T00:12:48;19.85;;;12.27;;
71655;SDS011;59497;48.798;8.816;2022-08-19T00:15:15;24.27;;;12.47;;
71655;SDS011;59497;48.798;8.816;2022-08-19T00:17:41;22.00;;;12.90;;
71655;SDS011;59497;48.798;8.816;2022-08-19T00:20:07;23.08;;;12.95;;
71655;SDS011;59497;48.798;8.816;2022-08-19T00:22:33;22.55;;;13.52;;
71655;SDS011;59497;48.798;8.816;2022-08-19T00:24:58;19.27;;;12.50;;
71655;SDS011;59497;48.798;8.816;2022-08-19T00:27:23;20.60;;;12.50;;
71655;SDS011;59497;48.798;8.816;2022-08-19T00:29:48;22.93;;;14.23;;
71655;SDS011;59497;48.798;8.816;2022-08-19T00:32:14;18.80;;;12.27;;
71655;SDS011;59497;48.798;8.816;2022-08-19T00:34:39;20.83;;;13.40;;
71655;SDS011;59497;48.798;8.816;2022-08-19T00:37:04;22.37;;;12.50;;
71655;SDS011;59497;48.798;8.816;2022-08-19T00:39:30;26.83;;;13.07;;
71655;SDS011;59497;48.798;8.816;2022-08-19T00:41:55;21.70;;;13.50;;
71655;SDS011;59497;48.798;8.816;2022-08-19T00:44:24;23.27;;;13.40;;
71655;SDS011;59497;48.798;8.816;2022-08-19T00:46:50;22.08;;;13.30;;
71655;SDS011;59497;48.798;8.816;2022-08-19T00:49:16;20.98;;;12.98;;
71655;SDS011;59497;48.798;8.816;2022-08-19T00:51:45;23.67;;;14.05;;
71655;SDS011;59497;48.798;8.816;2022-08-19T00:54:11;22.58;;;13.43;;
71655;SDS011;59497;48.798;8.816;2022-08-19T00:56:36;21.57;;;13.57;;
71655;SDS011;59497;48.798;8.816;2022-08-19T00:59:02;23.60;;;13.67;;
71655;SDS011;59497;48.798;8.816;2022-08-19T01:01:28;24.15;;;13.85;;
71655;SDS011;59497;48.798;8.816;2022-08-19T01:03:54;22.00;;;14.23;;
71655;SDS011;59497;48.798;8.816;2022-08-19T01:06:19;22.70;;;14.03;;
71655;SDS011;59497;48.798;8.816;2022-08-19T01:08:44;22.20;;;13.83;;
71655;SDS011;59497;48.798;8.816;2022-08-19T01:11:09;24.60;;;15.20;;
71655;SDS011;59497;48.798;8.816;2022-08-19T01:13:35;22.50;;;13.73;;
71655;SDS011;59497;48.798;8.816;2022-08-19T01:16:03;21.52;;;13.48;;
71655;SDS011;59497;48.798;8.816;2022-08-19T01:18:28;24.27;;;13.83;;
71655;SDS011;59497;48.798;8.816;2022-08-19T01:20:54;25.10;;;13.82;;
71655;SDS011;59497;48.798;8.816;2022-08-19T01:23:20;20.33;;;13.50;;
71655;SDS011;59497;48.798;8.816;2022-08-19T01:25:50;21.23;;;13.60;;
71655;SDS011;59497;48.798;8.816;2022-08-19T01:28:22;23.77;;;14.13;;
71655;SDS011;59497;48.798;8.816;2022-08-19T01:30:48;20.42;;;13.93;;
71655;SDS011;59497;48.798;8.816;2022-08-19T01:33:13;24.30;;;13.83;;
71655;SDS011;59497;48.798;8.816;2022-08-19T01:35:39;23.83;;;13.60;;
71655;SDS011;59497;48.798;8.816;2022-08-19T01:38:06;21.47;;;13.27;;
71655;SDS011;59497;48.798;8.816;2022-08-19T01:40:32;22.30;;;14.30;;
71655;SDS011;59497;48.798;8.816;2022-08-19T01:42:59;21.33;;;13.52;;
71655;SDS011;59497;48.798;8.816;2022-08-19T01:45:25;23.17;;;14.05;;
71655;SDS011;59497;48.798;8.816;2022-08-19T01:47:50;22.13;;;13.50;;
71655;SDS011;59497;48.798;8.816;2022-08-19T01:50:15;21.47;;;13.90;;
71655;SDS011;59497;48.798;8.816;2022-08-19T01:52:41;22.88;;;13.35;;
71655;SDS011;59497;48.798;8.816;2022-08-19T01:55:08;25.93;;;15.00;;
71655;SDS011;59497;48.798;8.816;2022-08-19T01:57:33;21.33;;;13.73;;
71655;SDS011;59497;48.798;8.816;2022-08-19T01:59:59;24.93;;;14.00;;
71655;SDS011;59497;48.798;8.816;2022-08-19T02:02:25;21.85;;;13.63;;
71655;SDS011;59497;48.798;8.816;2022-08-19T02:04:50;22.23;;;14.53;;
71655;SDS011;59497;48.798;8.816;2022-08-19T02:07:15;21.07;;;14.37;;
71655;SDS011;59497;48.798;8.816;2022-08-19T02:09:43;21.45;;;14.52;;
71655;SDS011;59497;48.798;8.816;2022-08-19T02:12:08;22.15;;;14.60;;
71655;SDS011;59497;48.798;8.816;2022-08-19T02:14:35;24.40;;;14.87;;
71655;SDS011;59497;48.798;8.816;2022-08-19T02:17:00;23.50;;;14.75;;
71655;SDS011;59497;48.798;8.816;2022-08-19T02:19:25;25.30;;;14.77;;
71655;SDS011;59497;48.798;8.816;2022-08-19T02:21:51;23.73;;;14.63;;
71655;SDS011;59497;48.798;8.816;2022-08-19T02:24:16;24.30;;;15.17;;
71655;SDS011;59497;48.798;8.816;2022-08-19T02:26:41;23.17;;;14.60;;
71655;SDS011;59497;48.798;8.816;2022-08-19T02:29:06;24.98;;;15.45;;
71655;SDS011;59497;48.798;8.816;2022-08-19T02:31:31;24.80;;;15.10;;
71655;SDS011;59497;48.798;8.816;2022-08-19T02:33:57;23.70;;;15.93;;
71655;SDS011;59497;48.798;8.816;2022-08-19T02:36:22;23.47;;;15.60;;
71655;SDS011;59497;48.798;8.816;2022-08-19T02:38:48;26.15;;;16.90;;
71655;SDS011;59497;48.798;8.816;2022-08-19T02:41:17;26.95;;;16.45;;
71655;SDS011;59497;48.798;8.816;2022-08-19T02:43:43;25.08;;;15.85;;
71655;SDS011;59497;48.798;8.816;2022-08-19T02:46:15;26.90;;;15.27;;
71655;SDS011;59497;48.798;8.816;2022-08-19T02:48:45;23.33;;;15.00;;
71655;SDS011;59497;48.798;8.816;2022-08-19T02:51:15;23.58;;;15.77;;
71655;SDS011;59497;48.798;8.816;2022-08-19T02:53:40;26.43;;;16.50;;
71655;SDS011;59497;48.798;8.816;2022-08-19T02:56:06;25.50;;;16.60;;
71655;SDS011;59497;48.798;8.816;2022-08-19T02:58:31;28.70;;;16.73;;
71655;SDS011;59497;48.798;8.816;2022-08-19T03:00:56;27.77;;;16.63;;
71655;SDS011;59497;48.798;8.816;2022-08-19T03:03:22;28.60;;;17.03;;
71655;SDS011;59497;48.798;8.816;2022-08-19T03:05:48;23.98;;;15.27;;
71655;SDS011;59497;48.798;8.816;2022-08-19T03:08:13;28.77;;;17.43;;
71655;SDS011;59497;48.798;8.816;2022-08-19T03:10:42;28.57;;;17.17;;
71655;SDS011;59497;48.798;8.816;2022-08-19T03:13:09;28.58;;;17.42;;
71655;SDS011;59497;48.798;8.816;2022-08-19T03:15:34;28.93;;;17.87;;
71655;SDS011;59497;48.798;8.816;2022-08-19T03:17:59;26.48;;;16.77;;
71655;SDS011;59497;48.798;8.816;2022-08-19T03:20:24;28.30;;;17.43;;
71655;SDS011;59497;48.798;8.816;2022-08-19T03:22:51;28.38;;;17.55;;
71655;SDS011;59497;48.798;8.816;2022-08-19T03:25:16;27.67;;;17.70;;
71655;SDS011;59497;48.798;8.816;2022-08-19T03:27:42;30.27;;;18.03;;
71655;SDS011;59497;48.798;8.816;2022-08-19T03:30:07;26.53;;;16.20;;
71655;SDS011;59497;48.798;8.816;2022-08-19T03:32:32;27.55;;;17.73;;
71655;SDS011;59497;48.798;8.816;2022-08-19T03:34:57;27.80;;;17.65;;
71655;SDS011;59497;48.798;8.816;2022-08-19T03:37:22;28.45;;;18.00;;
71655;SDS011;59497;48.798;8.816;2022-08-19T03:39:48;29.37;;;17.70;;
71655;SDS011;59497;48.798;8.816;2022-08-19T03:42:13;28.90;;;17.43;;
71655;SDS011;59497;48.798;8.816;2022-08-19T03:44:38;29.30;;;17.87;;
71655;SDS011;59497;48.798;8.816;2022-08-19T03:47:04;26.77;;;17.27;;
71655;SDS011;59497;48.798;8.816;2022-08-19T03:49:30;28.63;;;18.00;;
71655;SDS011;59497;48.798;8.816;2022-08-19T03:51:56;29.27;;;18.02;;
71655;SDS011;59497;48.798;8.816;2022-08-19T03:54:22;28.80;;;17.07;;
71655;SDS011;59497;48.798;8.816;2022-08-19T03:56:49;28.10;;;18.20;;
71655;SDS011;59497;48.798;8.816;2022-08-19T03:59:16;31.10;;;18.17;;
71655;SDS011;59497;48.798;8.816;2022-08-19T04:01:42;28.60;;;18.48;;
71655;SDS011;59497;48.798;8.816;2022-08-19T04:04:07;30.80;;;18.00;;
71655;SDS011;59497;48.798;8.816;2022-08-19T04:06:33;27.03;;;17.87;;
71655;SDS011;59497;48.798;8.816;2022-08-19T04:09:00;31.40;;;17.38;;
71655;SDS011;59497;48.798;8.816;2022-08-19T04:11:27;28.03;;;17.57;;
71655;SDS011;59497;48.798;8.816;2022-08-19T04:13:53;30.13;;;18.27;;
71655;SDS011;59497;48.798;8.816;2022-08-19T04:16:19;27.40;;;17.52;;
71655;SDS011;59497;48.798;8.816;2022-08-19T04:18:45;27.90;;;17.45;;
71655;SDS011;59497;48.798;8.816;2022-08-19T04:21:15;27.13;;;16.67;;
71655;SDS011;59497;48.798;8.816;2022-08-19T04:23:40;30.55;;;18.77;;
71655;SDS011;59497;48.798;8.816;2022-08-19T04:26:05;31.13;;;19.35;;
71655;SDS011;59497;48.798;8.816;2022-08-19T04:28:31;29.53;;;18.13;;
71655;SDS011;59497;48.798;8.816;2022-08-19T04:30:56;28.37;;;17.13;;
71655;SDS011;59497;48.798;8.816;2022-08-19T04:33:22;28.27;;;17.23;;
71655;SDS011;59497;48.798;8.816;2022-08-19T04:35:48;26.42;;;16.58;;
71655;SDS011;59497;48.798;8.816;2022-08-19T04:38:14;29.83;;;18.58;;
71655;SDS011;59497;48.798;8.816;2022-08-19T04:40:41;30.25;;;18.13;;
71655;SDS011;59497;48.798;8.816;2022-08-19T04:43:25;27.70;;;17.13;;
71655;SDS011;59497;48.798;8.816;2022-08-19T04:45:50;32.75;;;17.92;;
71655;SDS011;59497;48.798;8.816;2022-08-19T04:48:16;29.25;;;17.52;;
71655;SDS011;59497;48.798;8.816;2022-08-19T04:50:42;30.40;;;17.60;;
71655;SDS011;59497;48.798;8.816;2022-08-19T04:53:08;28.83;;;18.33;;
71655;SDS011;59497;48.798;8.816;2022-08-19T04:55:33;30.00;;;18.97;;
71655;SDS011;59497;48.798;8.816;2022-08-19T04:58:00;28.50;;;18.10;;
71655;SDS011;59497;48.798;8.816;2022-08-19T05:00:26;29.33;;;17.98;;
71655;SDS011;59497;48.798;8.816;2022-08-19T05:02:51;32.00;;;17.97;;
71655;SDS011;59497;48.798;8.816;2022-08-19T05:05:17;31.40;;;19.53;;
71655;SDS011;59497;48.798;8.816;2022-08-19T05:07:42;29.83;;;18.80;;
71655;SDS011;59497;48.798;8.816;2022-08-19T05:10:07;30.95;;;18.15;;
71655;SDS011;59497;48.798;8.816;2022-08-19T05:12:33;28.00;;;17.48;;
71655;SDS011;59497;48.798;8.816;2022-08-19T05:14:58;30.37;;;18.73;;
71655;SDS011;59497;48.798;8.816;2022-08-19T05:17:24;28.50;;;18.37;;
71655;SDS011;59497;48.798;8.816;2022-08-19T05:19:50;29.23;;;18.25;;
71655;SDS011;59497;48.798;8.816;2022-08-19T05:22:33;28.98;;;18.45;;
71655;SDS011;59497;48.798;8.816;2022-08-19T05:25:06;30.80;;;18.37;;
71655;SDS011;59497;48.798;8.816;2022-08-19T05:27:31;30.55;;;18.77;;
71655;SDS011;59497;48.798;8.816;2022-08-19T05:29:57;27.35;;;17.23;;
71655;SDS011;59497;48.798;8.816;2022-08-19T05:32:22;30.13;;;17.47;;
71655;SDS011;59497;48.798;8.816;2022-08-19T05:34:48;32.00;;;18.60;;
71655;SDS011;59497;48.798;8.816;2022-08-19T05:37:13;29.63;;;18.55;;
71655;SDS011;59497;48.798;8.816;2022-08-19T05:39:39;30.45;;;18.55;;
71655;SDS011;59497;48.798;8.816;2022-08-19T05:42:06;30.07;;;18.90;;
71655;SDS011;59497;48.798;8.816;2022-08-19T05:44:33;29.23;;;18.25;;
71655;SDS011;59497;48.798;8.816;2022-08-19T05:46:59;30.23;;;18.77;;
71655;SDS011;59497;48.798;8.816;2022-08-19T05:49:26;31.88;;;18.27;;
71655;SDS011;59497;48.798;8.816;2022-08-19T05:51:52;29.65;;;18.13;;
71655;SDS011;59497;48.798;8.816;2022-08-19T05:54:17;30.37;;;19.23;;
71655;SDS011;59497;48.798;8.816;2022-08-19T05:56:43;28.60;;;17.90;;
71655;SDS011;59497;48.798;8.816;2022-08-19T05:59:09;30.40;;;18.52;;
71655;SDS011;59497;48.798;8.816;2022-08-19T06:01:40;30.30;;;17.98;;
71655;SDS011;59497;48.798;8.816;2022-08-19T06:04:05;28.57;;;18.23;;
71655;SDS011;59497;48.798;8.816;2022-08-19T06:06:31;31.60;;;19.17;;
71655;SDS011;59497;48.798;8.816;2022-08-19T06:08:59;28.38;;;17.70;;
71655;SDS011;59497;48.798;8.816;2022-08-19T06:11:46;24.87;;;16.90;;
71655;SDS011;59497;48.798;8.816;2022-08-19T06:14:20;26.30;;;17.35;;
71655;SDS011;59497;48.798;8.816;2022-08-19T06:16:46;28.07;;;17.27;;
71655;SDS011;59497;48.798;8.816;2022-08-19T06:19:12;28.52;;;18.58;;
71655;SDS011;59497;48.798;8.816;2022-08-19T06:21:38;25.37;;;16.67;;
71655;SDS011;59497;48.798;8.816;2022-08-19T06:24:05;29.88;;;17.25;;
71655;SDS011;59497;48.798;8.816;2022-08-19T06:26:31;26.48;;;17.27;;
71655;SDS011;59497;48.798;8.816;2022-08-19T06:28:56;26.47;;;17.50;;
71655;SDS011;59497;48.798;8.816;2022-08-19T06:31:23;26.57;;;16.90;;
71655;SDS011;59497;48.798;8.816;2022-08-19T06:33:49;26.85;;;18.13;;
71655;SDS011;59497;48.798;8.816;2022-08-19T06:36:18;26.38;;;16.55;;
71655;SDS011;59497;48.798;8.816;2022-08-19T06:38:44;26.83;;;16.37;;
71655;SDS011;59497;48.798;8.816;2022-08-19T06:41:09;30.13;;;17.73;;
71655;SDS011;59497;48.798;8.816;2022-08-19T06:43:34;26.35;;;16.50;;
71655;SDS011;59497;48.798;8.816;2022-08-19T06:46:01;23.37;;;15.43;;
71655;SDS011;59497;48.798;8.816;2022-08-19T06:48:26;27.00;;;15.82;;
71655;SDS011;59497;48.798;8.816;2022-08-19T06:50:51;26.35;;;16.55;;
71655;SDS011;59497;48.798;8.816;2022-08-19T06:53:16;26.35;;;17.10;;
71655;SDS011;59497;48.798;8.816;2022-08-19T06:55:44;27.10;;;17.17;;
71655;SDS011;59497;48.798;8.816;2022-08-19T06:58:09;26.97;;;16.17;;
71655;SDS011;59497;48.798;8.816;2022-08-19T07:00:34;25.20;;;15.83;;
71655;SDS011;59497;48.798;8.816;2022-08-19T07:02:59;24.57;;;15.83;;
71655;SDS011;59497;48.798;8.816;2022-08-19T07:05:25;27.08;;;17.02;;
71655;SDS011;59497;48.798;8.816;2022-08-19T07:07:50;25.13;;;16.85;;
71655;SDS011;59497;48.798;8.816;2022-08-19T07:10:15;24.77;;;16.20;;
71655;SDS011;59497;48.798;8.816;2022-08-19T07:12:40;24.83;;;15.80;;
71655;SDS011;59497;48.798;8.816;2022-08-19T07:15:06;23.63;;;15.77;;
71655;SDS011;59497;48.798;8.816;2022-08-19T07:17:33;25.65;;;16.23;;
71655;SDS011;59497;48.798;8.816;2022-08-19T07:20:02;24.77;;;16.08;;
71655;SDS011;59497;48.798;8.816;2022-08-19T07:22:27;24.37;;;15.37;;
71655;SDS011;59497;48.798;8.816;2022-08-19T07:24:52;25.07;;;15.83;;
71655;SDS011;59497;48.798;8.816;2022-08-19T07:27:18;23.80;;;15.60;;
71655;SDS011;59497;48.798;8.816;2022-08-19T07:29:43;28.48;;;16.27;;
71655;SDS011;59497;48.798;8.816;2022-08-19T07:32:09;26.20;;;17.30;;
71655;SDS011;59497;48.798;8.816;2022-08-19T07:34:36;24.58;;;16.17;;
71655;SDS011;59497;48.798;8.816;2022-08-19T07:37:02;24.10;;;17.33;;
71655;SDS011;59497;48.798;8.816;2022-08-19T07:39:30;24.38;;;15.70;;
71655;SDS011;59497;48.798;8.816;2022-08-19T07:41:56;23.67;;;15.05;;
71655;SDS011;59497;48.798;8.816;2022-08-19T07:44:21;23.73;;;15.25;;
71655;SDS011;59497;48.798;8.816;2022-08-19T07:46:49;22.67;;;14.80;;
71655;SDS011;59497;48.798;8.816;2022-08-19T07:49:15;21.55;;;14.52;;
71655;SDS011;59497;48.798;8.816;2022-08-19T07:52:06;22.75;;;15.50;;
71655;SDS011;59497;48.798;8.816;2022-08-19T07:54:30;22.00;;;14.63;;
71655;SDS011;59497;48.798;8.816;2022-08-19T07:56:56;21.15;;;14.80;;
71655;SDS011;59497;48.798;8.816;2022-08-19T07:59:22;21.93;;;14.87;;
71655;SDS011;59497;48.798;8.816;2022-08-19T08:01:47;22.53;;;14.50;;
71655;SDS011;59497;48.798;8.816;2022-08-19T08:04:14;23.77;;;15.17;;
71655;SDS011;59497;48.798;8.816;2022-08-19T08:06:59;22.58;;;14.68;;
71655;SDS011;59497;48.798;8.816;2022-08-19T08:09:43;21.48;;;14.32;;
71655;SDS011;59497;48.798;8.816;2022-08-19T08:12:14;21.15;;;15.27;;
71655;SDS011;59497;48.798;8.816;2022-08-19T08:14:50;21.50;;;13.73;;
71655;SDS011;59497;48.798;8.816;2022-08-19T08:17:16;22.10;;;14.90;;
71655;SDS011;59497;48.798;8.816;2022-08-19T08:19:42;20.65;;;15.07;;
71655;SDS011;59497;48.798;8.816;2022-08-19T08:22:07;21.52;;;14.00;;
71655;SDS011;59497;48.798;8.816;2022-08-19T08:24:33;20.77;;;14.27;;
71655;SDS011;59497;48.798;8.816;2022-08-19T08:27:00;21.48;;;14.45;;
71655;SDS011;59497;48.798;8.816;2022-08-19T08:29:26;19.97;;;14.00;;
71655;SDS011;59497;48.798;8.816;2022-08-19T08:31:52;20.50;;;14.20;;
71655;SDS011;59497;48.798;8.816;2022-08-19T08:34:18;19.35;;;13.40;;
71655;SDS011;59497;48.798;8.816;2022-08-19T08:36:44;19.23;;;13.97;;
71655;SDS011;59497;48.798;8.816;2022-08-19T08:39:10;19.65;;;13.05;;
71655;SDS011;59497;48.798;8.816;2022-08-19T08:44:20;20.60;;;14.32;;
71655;SDS011;59497;48.798;8.816;2022-08-19T08:46:47;21.15;;;13.80;;
71655;SDS011;59497;48.798;8.816;2022-08-19T08:49:20;22.27;;;13.47;;
71655;SDS011;59497;48.798;8.816;2022-08-19T08:51:54;20.13;;;14.52;;
71655;SDS011;59497;48.798;8.816;2022-08-19T08:54:25;20.33;;;13.75;;
71655;SDS011;59497;48.798;8.816;2022-08-19T08:56:51;20.85;;;13.43;;
71655;SDS011;59497;48.798;8.816;2022-08-19T08:59:30;18.67;;;13.18;;
71655;SDS011;59497;48.798;8.816;2022-08-19T09:01:57;17.73;;;13.07;;
71655;SDS011;59497;48.798;8.816;2022-08-19T09:04:22;20.60;;;13.97;;
71655;SDS011;59497;48.798;8.816;2022-08-19T09:09:34;17.42;;;12.57;;
71655;SDS011;59497;48.798;8.816;2022-08-19T09:14:48;17.50;;;13.18;;
71655;SDS011;59497;48.798;8.816;2022-08-19T09:17:15;18.90;;;13.18;;
71655;SDS011;59497;48.798;8.816;2022-08-19T09:19:48;20.27;;;13.30;;
71655;SDS011;59497;48.798;8.816;2022-08-19T09:22:14;18.90;;;13.20;;
71655;SDS011;59497;48.798;8.816;2022-08-19T09:24:39;19.47;;;13.43;;
71655;SDS011;59497;48.798;8.816;2022-08-19T09:27:05;18.42;;;12.23;;
71655;SDS011;59497;48.798;8.816;2022-08-19T09:29:30;18.00;;;13.40;;
71655;SDS011;59497;48.798;8.816;2022-08-19T09:31:56;16.55;;;12.45;;
71655;SDS011;59497;48.798;8.816;2022-08-19T09:34:21;15.50;;;12.07;;
71655;SDS011;59497;48.798;8.816;2022-08-19T09:36:46;19.60;;;14.37;;
71655;SDS011;59497;48.798;8.816;2022-08-19T09:39:11;22.13;;;13.93;;
71655;SDS011;59497;48.798;8.816;2022-08-19T09:41:36;18.00;;;12.65;;
71655;SDS011;59497;48.798;8.816;2022-08-19T09:44:02;17.47;;;13.17;;
71655;SDS011;59497;48.798;8.816;2022-08-19T09:46:28;16.20;;;12.23;;
71655;SDS011;59497;48.798;8.816;2022-08-19T09:48:54;16.02;;;11.85;;
71655;SDS011;59497;48.798;8.816;2022-08-19T09:51:20;14.73;;;11.67;;
71655;SDS011;59497;48.798;8.816;2022-08-19T09:53:46;15.55;;;11.57;;
71655;SDS011;59497;48.798;8.816;2022-08-19T09:56:12;15.65;;;11.15;;
71655;SDS011;59497;48.798;8.816;2022-08-19T09:58:38;15.73;;;11.70;;
71655;SDS011;59497;48.798;8.816;2022-08-19T10:01:04;14.57;;;11.30;;
71655;SDS011;59497;48.798;8.816;2022-08-19T10:03:30;14.57;;;11.40;;
71655;SDS011;59497;48.798;8.816;2022-08-19T10:05:56;16.33;;;11.40;;
71655;SDS011;59497;48.798;8.816;2022-08-19T10:08:23;13.13;;;10.52;;
71655;SDS011;59497;48.798;8.816;2022-08-19T10:10:49;14.15;;;11.00;;
71655;SDS011;59497;48.798;8.816;2022-08-19T10:13:16;13.37;;;11.50;;
71655;SDS011;59497;48.798;8.816;2022-08-19T10:15:42;16.02;;;11.13;;
71655;SDS011;59497;48.798;8.816;2022-08-19T10:18:07;12.93;;;10.33;;
71655;SDS011;59497;48.798;8.816;2022-08-19T10:20:32;13.53;;;11.07;;
71655;SDS011;59497;48.798;8.816;2022-08-19T10:23:00;14.00;;;11.30;;
71655;SDS011;59497;48.798;8.816;2022-08-19T10:25:25;13.25;;;10.43;;
71655;SDS011;59497;48.798;8.816;2022-08-19T10:27:51;12.63;;;9.83;;
71655;SDS011;59497;48.798;8.816;2022-08-19T10:30:17;13.75;;;10.50;;
71655;SDS011;59497;48.798;8.816;2022-08-19T10:32:42;13.77;;;10.57;;
71655;SDS011;59497;48.798;8.816;2022-08-19T10:35:10;12.35;;;10.07;;
71655;SDS011;59497;48.798;8.816;2022-08-19T10:37:36;14.07;;;8.90;;
71655;SDS011;59497;48.798;8.816;2022-08-19T10:40:02;9.60;;;7.97;;
71655;SDS011;59497;48.798;8.816;2022-08-19T10:42:27;11.30;;;9.40;;
71655;SDS011;59497;48.798;8.816;2022-08-19T10:44:53;11.63;;;9.03;;
71655;SDS011;59497;48.798;8.816;2022-08-19T10:47:18;12.57;;;9.95;;
71655;SDS011;59497;48.798;8.816;2022-08-19T10:49:43;16.60;;;10.57;;
71655;SDS011;59497;48.798;8.816;2022-08-19T10:52:27;11.98;;;9.55;;
71655;SDS011;59497;48.798;8.816;2022-08-19T10:55:02;11.27;;;9.85;;
71655;SDS011;59497;48.798;8.816;2022-08-19T10:57:46;13.52;;;9.80;;
71655;SDS011;59497;48.798;8.816;2022-08-19T11:00:12;12.43;;;8.90;;
71655;SDS011;59497;48.798;8.816;2022-08-19T11:02:38;11.63;;;9.43;;
71655;SDS011;59497;48.798;8.816;2022-08-19T11:05:03;12.52;;;9.10;;
71655;SDS011;59497;48.798;8.816;2022-08-19T11:07:28;11.65;;;8.85;;
71655;SDS011;59497;48.798;8.816;2022-08-19T11:09:53;11.40;;;8.80;;
71655;SDS011;59497;48.798;8.816;2022-08-19T11:12:18;11.23;;;9.23;;
71655;SDS011;59497;48.798;8.816;2022-08-19T11:14:44;12.02;;;9.65;;
71655;SDS011;59497;48.798;8.816;2022-08-19T11:17:09;12.73;;;8.53;;
71655;SDS011;59497;48.798;8.816;2022-08-19T11:19:38;9.13;;;8.20;;
71655;SDS011;59497;48.798;8.816;2022-08-19T11:22:03;10.37;;;8.30;;
71655;SDS011;59497;48.798;8.816;2022-08-19T11:24:28;8.93;;;7.67;;
71655;SDS011;59497;48.798;8.816;2022-08-19T11:26:54;9.57;;;8.17;;
71655;SDS011;59497;48.798;8.816;2022-08-19T11:29:24;10.25;;;8.25;;
71655;SDS011;59497;48.798;8.816;2022-08-19T11:31:52;9.82;;;7.95;;
71655;SDS011;59497;48.798;8.816;2022-08-19T11:34:19;10.77;;;8.03;;
71655;SDS011;59497;48.798;8.816;2022-08-19T11:36:46;10.70;;;8.25;;
71655;SDS011;59497;48.798;8.816;2022-08-19T11:39:13;9.30;;;8.32;;
71655;SDS011;59497;48.798;8.816;2022-08-19T11:41:39;9.55;;;7.95;;
71655;SDS011;59497;48.798;8.816;2022-08-19T11:44:04;9.00;;;8.10;;
71655;SDS011;59497;48.798;8.816;2022-08-19T11:46:30;88.33;;;15.27;;
71655;SDS011;59497;48.798;8.816;2022-08-19T11:48:55;10.63;;;7.40;;
71655;SDS011;59497;48.798;8.816;2022-08-19T11:51:21;9.52;;;7.13;;
71655;SDS011;59497;48.798;8.816;2022-08-19T11:53:47;10.50;;;6.90;;
71655;SDS011;59497;48.798;8.816;2022-08-19T11:56:13;9.03;;;6.40;;
71655;SDS011;59497;48.798;8.816;2022-08-19T11:58:38;9.33;;;7.17;;
71655;SDS011;59497;48.798;8.816;2022-08-19T12:01:07;7.13;;;6.43;;
71655;SDS011;59497;48.798;8.816;2022-08-19T12:03:33;7.40;;;6.70;;
71655;SDS011;59497;48.798;8.816;2022-08-19T12:06:02;8.07;;;6.93;;
71655;SDS011;59497;48.798;8.816;2022-08-19T12:08:27;9.90;;;6.75;;
71655;SDS011;59497;48.798;8.816;2022-08-19T12:10:53;8.20;;;6.80;;
71655;SDS011;59497;48.798;8.816;2022-08-19T12:13:18;6.77;;;6.07;;
71655;SDS011;59497;48.798;8.816;2022-08-19T12:15:45;7.97;;;7.17;;
71655;SDS011;59497;48.798;8.816;2022-08-19T12:18:10;7.00;;;6.30;;
71655;SDS011;59497;48.798;8.816;2022-08-19T12:20:36;7.73;;;7.03;;
71655;SDS011;59497;48.798;8.816;2022-08-19T12:23:02;7.70;;;7.00;;
71655;SDS011;59497;48.798;8.816;2022-08-19T12:25:27;7.80;;;7.00;;
71655;SDS011;59497;48.798;8.816;2022-08-19T12:27:52;10.30;;;7.13;;
71655;SDS011;59497;48.798;8.816;2022-08-19T12:30:18;7.72;;;6.95;;
71655;SDS011;59497;48.798;8.816;2022-08-19T12:32:43;8.77;;;7.33;;
71655;SDS011;59497;48.798;8.816;2022-08-19T12:35:08;7.20;;;6.50;;
71655;SDS011;59497;48.798;8.816;2022-08-19T12:37:35;7.25;;;6.57;;
71655;SDS011;59497;48.798;8.816;2022-08-19T12:40:00;7.90;;;7.07;;
71655;SDS011;59497;48.798;8.816;2022-08-19T12:42:25;7.97;;;6.47;;
71655;SDS011;59497;48.798;8.816;2022-08-19T12:44:51;8.03;;;7.07;;
71655;SDS011;59497;48.798;8.816;2022-08-19T12:47:17;7.72;;;7.00;;
71655;SDS011;59497;48.798;8.816;2022-08-19T12:49:42;8.10;;;7.27;;
71655;SDS011;59497;48.798;8.816;2022-08-19T12:52:09;7.88;;;7.22;;
71655;SDS011;59497;48.798;8.816;2022-08-19T12:54:35;6.72;;;6.18;;
71655;SDS011;59497;48.798;8.816;2022-08-19T12:57:00;7.80;;;7.10;;
71655;SDS011;59497;48.798;8.816;2022-08-19T12:59:29;7.90;;;7.20;;
71655;SDS011;59497;48.798;8.816;2022-08-19T13:01:54;9.52;;;8.10;;
71655;SDS011;59497;48.798;8.816;2022-08-19T13:04:19;8.20;;;7.13;;
71655;SDS011;59497;48.798;8.816;2022-08-19T13:06:44;9.27;;;8.33;;
71655;SDS011;59497;48.798;8.816;2022-08-19T13:09:10;8.80;;;8.00;;
71655;SDS011;59497;48.798;8.816;2022-08-19T13:11:36;10.30;;;9.33;;
71655;SDS011;59497;48.798;8.816;2022-08-19T13:14:02;8.80;;;7.90;;
71655;SDS011;59497;48.798;8.816;2022-08-19T13:16:27;10.07;;;9.13;;
71655;SDS011;59497;48.798;8.816;2022-08-19T13:18:52;10.60;;;9.60;;
71655;SDS011;59497;48.798;8.816;2022-08-19T13:21:18;10.60;;;9.70;;
71655;SDS011;59497;48.798;8.816;2022-08-19T13:23:45;11.75;;;9.93;;
71655;SDS011;59497;48.798;8.816;2022-08-19T13:26:10;9.50;;;8.50;;
71655;SDS011;59497;48.798;8.816;2022-08-19T13:28:36;9.65;;;8.85;;
71655;SDS011;59497;48.798;8.816;2022-08-19T13:31:21;10.43;;;9.00;;
71655;SDS011;59497;48.798;8.816;2022-08-19T13:34:05;9.20;;;8.23;;
71655;SDS011;59497;48.798;8.816;2022-08-19T13:36:31;10.13;;;9.23;;
71655;SDS011;59497;48.798;8.816;2022-08-19T13:38:57;8.95;;;8.05;;
71655;SDS011;59497;48.798;8.816;2022-08-19T13:41:22;9.77;;;8.88;;
71655;SDS011;59497;48.798;8.816;2022-08-19T13:43:47;9.67;;;8.77;;
71655;SDS011;59497;48.798;8.816;2022-08-19T13:46:14;9.47;;;8.50;;
71655;SDS011;59497;48.798;8.816;2022-08-19T13:48:39;8.63;;;7.93;;
71655;SDS011;59497;48.798;8.816;2022-08-19T13:51:06;9.60;;;8.77;;
71655;SDS011;59497;48.798;8.816;2022-08-19T13:53:34;9.68;;;8.75;;
71655;SDS011;59497;48.798;8.816;2022-08-19T13:55:59;10.20;;;9.30;;
71655;SDS011;59497;48.798;8.816;2022-08-19T13:58:25;16.77;;;15.30;;
71655;SDS011;59497;48.798;8.816;2022-08-19T14:00:50;14.17;;;11.30;;
71655;SDS011;59497;48.798;8.816;2022-08-19T14:03:15;9.50;;;8.60;;
71655;SDS011;59497;48.798;8.816;2022-08-19T14:05:40;10.20;;;9.30;;
71655;SDS011;59497;48.798;8.816;2022-08-19T14:08:06;9.30;;;8.40;;
71655;SDS011;59497;48.798;8.816;2022-08-19T14:10:31;9.57;;;8.57;;
71655;SDS011;59497;48.798;8.816;2022-08-19T14:12:57;9.65;;;8.77;;
71655;SDS011;59497;48.798;8.816;2022-08-19T14:15:23;9.20;;;8.20;;
71655;SDS011;59497;48.798;8.816;2022-08-19T14:17:49;8.95;;;8.18;;
71655;SDS011;59497;48.798;8.816;2022-08-19T14:20:14;8.97;;;8.07;;
71655;SDS011;59497;48.798;8.816;2022-08-19T14:22:41;9.30;;;8.50;;
71655;SDS011;59497;48.798;8.816;2022-08-19T14:25:10;9.53;;;8.73;;
71655;SDS011;59497;48.798;8.816;2022-08-19T14:27:36;8.48;;;7.68;;
71655;SDS011;59497;48.798;8.816;2022-08-19T14:30:02;10.10;;;9.10;;
71655;SDS011;59497;48.798;8.816;2022-08-19T14:32:28;8.32;;;7.63;;